Time;durP1;ratioP1;P1;durP2;ratioP2;P2;SDS_P1;SDS_P2;PMS_P1;PMS_P2;Temp;Humidity;BMP_temperature;BMP_pressure;BME280_temperature;BME280_humidity;BME280_pressure;Samples;Min_cycle;Max_cycle;Signal;HPM_P1;HPM_P2
2022/03/15 00:01:19;;;;;;;29.73;7.57;;;4.70;99.90;;;;;;5111481;27;20084;-81
2022/03/15 00:03:44;;;;;;;16.45;7.30;;;4.70;99.90;;;;;;5110952;27;20122;-81
2022/03/15 00:06:10;;;;;;;;;;;4.70;99.90;;;;;;5095531;27;20542;-82
2022/03/15 00:08:36;;;;;;;;;;;4.70;99.90;;;;;;5116328;27;19920;-81
2022/03/15 00:11:05;;;;;;;;;;;4.70;99.90;;;;;;5115763;27;20400;-81
2022/03/15 00:13:34;;;;;;;12.80;6.03;;;4.60;99.90;;;;;;5115567;27;19923;-81
2022/03/15 00:16:01;;;;;;;12.82;6.03;;;4.70;99.90;;;;;;5114685;27;20055;-81
2022/03/15 00:18:30;;;;;;;14.98;6.10;;;4.60;99.90;;;;;;5115590;27;20047;-81
2022/03/15 00:20:59;;;;;;;22.92;6.55;;;4.60;99.90;;;;;;5098230;27;20043;-81
2022/03/15 00:23:25;;;;;;;22.95;6.82;;;4.50;99.90;;;;;;5114984;27;20045;-81
2022/03/15 00:25:52;;;;;;;13.73;5.88;;;4.50;99.90;;;;;;5115213;27;20040;-81
2022/03/15 00:28:19;;;;;;;17.45;6.53;;;4.50;99.90;;;;;;5115390;27;20039;-81
2022/03/15 00:30:45;;;;;;;15.93;7.10;;;4.50;99.90;;;;;;5114649;27;20489;-81
2022/03/15 00:33:12;;;;;;;16.25;5.90;;;4.50;99.90;;;;;;5115069;27;20109;-81
2022/03/15 00:35:37;;;;;;;13.40;5.53;;;4.40;99.90;;;;;;5115047;27;20039;-81
2022/03/15 00:38:03;;;;;;;14.85;6.93;;;4.40;99.90;;;;;;5133244;27;20378;-81
2022/03/15 00:40:29;;;;;;;13.07;5.40;;;4.40;99.90;;;;;;5114650;27;20039;-81
2022/03/15 00:42:54;;;;;;;15.80;6.78;;;4.40;99.90;;;;;;5114690;27;20040;-81
2022/03/15 00:45:25;;;;;;;13.77;5.82;;;4.40;99.90;;;;;;5133447;27;20046;-81
2022/03/15 00:47:52;;;;;;;14.82;6.13;;;4.40;99.90;;;;;;5133181;27;20035;-81
2022/03/15 00:50:18;;;;;;;19.23;6.78;;;4.30;99.90;;;;;;5114657;27;20043;-81
2022/03/15 00:52:44;;;;;;;16.27;6.85;;;4.30;99.90;;;;;;5114821;27;20060;-81
2022/03/15 00:55:10;;;;;;;14.40;6.15;;;4.30;99.90;;;;;;5114237;27;20039;-81
2022/03/15 00:57:37;;;;;;;19.08;7.50;;;4.30;99.90;;;;;;5132879;27;20050;-82
2022/03/15 01:00:06;;;;;;;20.80;7.95;;;4.30;99.90;;;;;;5132797;27;20051;-81
2022/03/15 01:02:32;;;;;;;17.92;7.00;;;4.20;99.90;;;;;;5114177;27;20130;-81
2022/03/15 01:04:58;;;;;;;13.57;6.50;;;4.20;99.90;;;;;;5114776;27;20176;-81
2022/03/15 01:07:23;;;;;;;17.02;7.18;;;4.20;99.90;;;;;;5132831;27;20043;-81
2022/03/15 01:09:49;;;;;;;16.90;7.88;;;4.20;99.90;;;;;;5114285;27;20094;-82
2022/03/15 01:12:15;;;;;;;17.38;6.65;;;4.20;99.90;;;;;;5132608;27;20042;-81
2022/03/15 01:14:40;;;;;;;15.40;7.30;;;4.10;99.90;;;;;;5132426;27;20035;-81
2022/03/15 01:17:06;;;;;;;19.45;8.77;;;4.10;99.90;;;;;;5114048;27;20452;-81
2022/03/15 01:19:32;;;;;;;22.35;9.57;;;4.10;99.90;;;;;;5113259;27;20421;-81
2022/03/15 01:21:58;;;;;;;26.92;9.40;;;4.10;99.90;;;;;;5096757;27;20050;-81
2022/03/15 01:24:24;;;;;;;27.13;11.43;;;4.10;99.90;;;;;;5131960;27;20040;-82
2022/03/15 01:26:53;;;;;;;21.45;9.52;;;4.10;99.90;;;;;;5113851;27;20489;-82
2022/03/15 01:29:21;;;;;;;22.75;10.43;;;4.10;99.90;;;;;;5132442;27;20043;-81
2022/03/15 01:31:49;;;;;;;23.08;9.73;;;4.10;99.90;;;;;;5113540;27;20043;-82
2022/03/15 01:34:15;;;;;;;25.15;11.05;;;4.10;99.90;;;;;;5132197;27;20047;-82
2022/03/15 01:36:41;;;;;;;28.70;11.98;;;4.10;99.90;;;;;;5113556;27;20046;-81
2022/03/15 01:39:07;;;;;;;;;;;4.10;99.90;;;;;;5114372;27;20039;-81
2022/03/15 01:41:35;;;;;;;29.75;12.05;;;4.10;99.90;;;;;;5131877;27;19974;-81
2022/03/15 01:44:03;;;;;;;28.38;12.13;;;4.10;99.90;;;;;;5113440;27;20054;-82
2022/03/15 01:46:29;;;;;;;26.25;12.63;;;4.10;99.90;;;;;;5113659;27;20501;-81
2022/03/15 01:48:54;;;;;;;27.23;12.60;;;4.10;99.90;;;;;;5113318;27;20049;-82
2022/03/15 01:51:21;;;;;;;24.58;12.20;;;4.00;99.90;;;;;;5096268;27;20043;-81
2022/03/15 01:53:47;;;;;;;27.65;12.63;;;4.00;99.90;;;;;;5131538;27;20051;-81
2022/03/15 01:56:12;;;;;;;30.95;13.68;;;4.00;99.90;;;;;;5113435;27;20115;-81
2022/03/15 01:58:38;;;;;;;28.23;12.25;;;4.00;99.90;;;;;;5113490;27;20462;-81
2022/03/15 02:01:04;;;;;;;28.08;13.10;;;4.00;99.90;;;;;;5096023;27;20085;-82
2022/03/15 02:03:30;;;;;;;26.27;13.82;;;4.00;99.90;;;;;;5113196;27;20039;-81
2022/03/15 02:05:56;;;;;;;34.47;13.05;;;4.00;99.90;;;;;;5113242;27;20043;-81
2022/03/15 02:08:22;;;;;;;30.10;13.13;;;4.00;99.90;;;;;;5113158;27;20443;-82
2022/03/15 02:10:47;;;;;;;30.23;13.75;;;4.00;99.90;;;;;;5104005;27;20035;-82
2022/03/15 02:13:13;;;;;;;;;;;4.00;99.90;;;;;;5113457;27;20039;-81
2022/03/15 02:15:38;;;;;;;30.70;13.13;;;4.00;99.90;;;;;;5096342;27;19972;-81
2022/03/15 02:18:05;;;;;;;28.10;13.57;;;3.90;99.90;;;;;;5113042;27;20057;-82
2022/03/15 02:20:31;;;;;;;29.27;13.27;;;3.90;99.90;;;;;;5112701;27;20035;-81
2022/03/15 02:22:57;;;;;;;36.10;13.55;;;3.90;99.90;;;;;;5130118;27;20140;-82
2022/03/15 02:25:24;;;;;;;29.00;12.40;;;3.80;99.90;;;;;;5112857;27;20464;-82
2022/03/15 02:27:50;;;;;;;28.98;12.10;;;3.90;99.90;;;;;;5112678;27;20046;-82
2022/03/15 02:30:17;;;;;;;28.25;12.35;;;3.80;99.90;;;;;;5112267;27;20054;-82
2022/03/15 02:32:42;;;;;;;;;;;3.70;99.90;;;;;;5131525;27;20043;-82
2022/03/15 02:35:08;;;;;;;;;;;3.70;99.90;;;;;;5130615;27;19964;-82
2022/03/15 02:37:34;;;;;;;17.85;9.82;;;3.70;99.90;;;;;;5110922;27;19923;-82
2022/03/15 02:40:00;;;;;;;21.30;10.32;;;3.70;99.90;;;;;;5111825;27;20054;-82
2022/03/15 02:42:25;;;;;;;25.85;11.60;;;3.70;99.90;;;;;;5130098;27;20051;-81
2022/03/15 02:44:51;;;;;;;19.95;10.57;;;3.60;99.90;;;;;;5130531;27;20382;-81
2022/03/15 02:47:16;;;;;;;21.73;11.07;;;3.60;99.90;;;;;;5130848;27;20711;-81
2022/03/15 02:49:43;;;;;;;24.75;11.55;;;3.50;99.90;;;;;;5112313;27;20043;-82
2022/03/15 02:52:09;;;;;;;23.48;10.43;;;3.50;99.90;;;;;;5095245;27;20062;-82
2022/03/15 02:54:37;;;;;;;19.90;10.80;;;3.50;99.90;;;;;;5095228;27;20039;-81
2022/03/15 02:57:03;;;;;;;19.27;11.23;;;3.50;99.90;;;;;;5112528;27;20051;-81
2022/03/15 02:59:29;;;;;;;24.45;11.15;;;3.40;99.90;;;;;;5112198;27;20050;-81
2022/03/15 03:01:56;;;;;;;24.65;11.98;;;3.40;99.90;;;;;;5095164;27;20922;-81
2022/03/15 03:04:22;;;;;;;19.65;11.13;;;3.40;99.90;;;;;;5112149;27;20413;-81
2022/03/15 03:06:48;;;;;;;23.48;11.88;;;3.40;99.90;;;;;;5130130;27;20091;-81
2022/03/15 03:09:14;;;;;;;29.13;13.38;;;3.40;99.90;;;;;;5112012;27;20093;-81
2022/03/15 03:11:40;;;;;;;22.15;11.90;;;3.40;99.90;;;;;;5130343;27;20058;-81
2022/03/15 03:14:06;;;;;;;25.20;12.63;;;3.40;99.90;;;;;;5130247;27;20043;-81
2022/03/15 03:16:34;;;;;;;25.17;12.45;;;3.50;99.90;;;;;;5111994;27;20063;-82
2022/03/15 03:19:00;;;;;;;26.58;12.82;;;3.50;99.90;;;;;;5094724;27;20047;-82
2022/03/15 03:21:27;;;;;;;23.20;11.80;;;3.50;99.90;;;;;;5130026;27;20031;-82
2022/03/15 03:23:54;;;;;;;31.55;14.70;;;3.50;99.90;;;;;;5112002;27;20039;-81
2022/03/15 03:26:21;;;;;;;26.35;13.93;;;3.50;99.90;;;;;;5112189;27;20558;-82
2022/03/15 03:28:47;;;;;;;25.40;14.55;;;3.50;99.90;;;;;;5094777;27;20068;-82
2022/03/15 03:31:13;;;;;;;35.92;16.50;;;3.60;99.90;;;;;;5111629;27;20112;-82
2022/03/15 03:33:39;;;;;;;40.33;16.10;;;3.60;99.90;;;;;;5129717;27;20485;-81
2022/03/15 03:36:05;;;;;;;39.53;17.30;;;3.70;99.90;;;;;;5094916;27;20087;-82
2022/03/15 03:38:31;;;;;;;31.65;17.08;;;3.80;99.90;;;;;;5111181;28;20035;-82
2022/03/15 03:40:57;;;;;;;39.17;17.23;;;3.80;99.90;;;;;;5129329;27;20080;-81
2022/03/15 03:43:23;;;;;;;35.53;17.95;;;3.90;99.90;;;;;;5111553;28;20051;-82
2022/03/15 03:45:49;;;;;;;35.28;17.63;;;3.90;99.90;;;;;;5130099;28;20117;-82
2022/03/15 03:48:15;;;;;;;30.33;17.70;;;3.90;99.90;;;;;;5129569;28;20061;-81
2022/03/15 03:50:43;;;;;;;31.20;15.77;;;3.90;99.90;;;;;;5111603;28;20512;-81
2022/03/15 03:53:08;;;;;;;31.13;15.43;;;3.90;99.90;;;;;;5111580;28;20086;-81
2022/03/15 03:55:34;;;;;;;36.53;17.80;;;3.90;99.90;;;;;;5130072;28;20496;-82
2022/03/15 03:58:00;;;;;;;38.53;16.75;;;3.90;99.90;;;;;;5130025;28;20082;-81
2022/03/15 04:00:26;;;;;;;30.00;16.35;;;3.80;99.90;;;;;;5111545;28;20489;-81
2022/03/15 04:02:57;;;;;;;26.25;15.30;;;3.80;99.90;;;;;;5111245;28;20058;-82
2022/03/15 04:05:23;;;;;;;32.53;14.82;;;3.80;99.90;;;;;;5111379;28;20100;-81
2022/03/15 04:07:49;;;;;;;27.17;15.35;;;3.70;99.90;;;;;;5111610;28;20049;-81
2022/03/15 04:10:15;;;;;;;30.92;17.10;;;3.80;99.90;;;;;;5093883;28;20051;-81
2022/03/15 04:12:41;;;;;;;33.50;17.15;;;3.80;99.90;;;;;;5111238;28;20050;-81
2022/03/15 04:15:08;;;;;;;27.05;16.33;;;3.80;99.90;;;;;;5111559;28;20153;-81
2022/03/15 04:17:34;;;;;;;34.88;16.58;;;3.80;99.90;;;;;;5129355;28;20107;-81
2022/03/15 04:19:59;;;;;;;29.98;17.95;;;3.80;99.90;;;;;;5129419;28;20039;-81
2022/03/15 04:22:25;;;;;;;33.25;17.85;;;3.90;99.90;;;;;;5111694;28;20092;-81
2022/03/15 04:24:51;;;;;;;38.17;19.40;;;3.90;99.90;;;;;;5110941;28;20042;-82
2022/03/15 04:27:17;;;;;;;30.17;18.20;;;3.90;99.90;;;;;;5129298;28;20043;-82
2022/03/15 04:29:43;;;;;;;32.05;18.15;;;3.90;99.90;;;;;;5111438;28;20476;-81
2022/03/15 04:32:09;;;;;;;34.35;18.42;;;4.00;99.90;;;;;;5111399;28;20130;-82
2022/03/15 04:34:35;;;;;;;30.50;20.25;;;4.00;99.90;;;;;;5111113;28;20503;-81
2022/03/15 04:37:01;;;;;;;40.13;20.58;;;4.00;99.90;;;;;;5129501;28;20044;-81
2022/03/15 04:39:26;;;;;;;33.70;20.08;;;4.00;99.90;;;;;;5110621;28;20082;-82
2022/03/15 04:41:53;;;;;;;47.13;23.42;;;4.10;99.90;;;;;;5111250;28;20043;-82
2022/03/15 04:44:18;;;;;;;39.15;23.33;;;4.10;99.90;;;;;;5094227;28;20043;-82
2022/03/15 04:46:44;;;;;;;40.75;24.20;;;4.10;99.90;;;;;;5110722;28;20043;-82
2022/03/15 04:49:10;;;;;;;45.13;24.42;;;4.20;99.90;;;;;;5128946;28;20533;-81
2022/03/15 04:51:36;;;;;;;39.47;23.95;;;4.20;99.90;;;;;;5110808;28;20510;-82
2022/03/15 04:54:02;;;;;;;45.63;23.77;;;4.20;99.90;;;;;;5095134;27;20571;-82
2022/03/15 04:56:28;;;;;;;54.90;36.80;;;4.30;99.90;;;;;;5112902;27;20486;-82
2022/03/15 04:58:53;;;;;;;48.78;35.25;;;4.30;99.90;;;;;;5113011;27;20429;-82
2022/03/15 05:01:19;;;;;;;50.90;34.38;;;4.30;99.90;;;;;;5112913;27;20407;-82
2022/03/15 05:03:45;;;;;;;48.30;28.38;;;4.30;99.90;;;;;;5114090;27;20035;-81
2022/03/15 05:06:10;;;;;;;48.17;26.98;;;4.30;99.90;;;;;;5114617;27;20172;-82
2022/03/15 05:08:36;;;;;;;54.88;28.45;;;4.30;99.90;;;;;;5132583;27;20035;-82
2022/03/15 05:11:08;;;;;;;51.33;28.00;;;4.40;99.90;;;;;;5132764;27;20126;-82
2022/03/15 05:13:36;;;;;;;48.17;27.33;;;4.40;99.90;;;;;;5113977;27;20047;-82
2022/03/15 05:16:03;;;;;;;49.65;28.90;;;4.40;99.90;;;;;;5096869;27;20083;-82
2022/03/15 05:18:28;;;;;;;47.58;27.33;;;4.40;99.90;;;;;;5132652;27;20047;-81
2022/03/15 05:20:55;;;;;;;48.28;27.20;;;4.50;99.90;;;;;;5113320;27;20836;-81
2022/03/15 05:23:21;;;;;;;51.60;27.92;;;4.50;99.90;;;;;;5113005;27;20050;-81
2022/03/15 05:25:46;;;;;;;44.95;26.23;;;4.50;99.90;;;;;;5096226;27;20039;-82
2022/03/15 05:28:12;;;;;;;55.60;28.38;;;4.50;99.90;;;;;;5131526;27;20113;-82
2022/03/15 05:30:38;;;;;;;55.47;30.58;;;4.60;99.90;;;;;;5112262;27;20078;-81
2022/03/15 05:33:04;;;;;;;44.92;28.02;;;4.60;99.90;;;;;;5112798;27;20463;-82
2022/03/15 05:35:30;;;;;;;;;;;4.60;99.90;;;;;;5113637;27;20077;-81
2022/03/15 05:37:56;;;;;;;54.22;27.40;;;4.60;99.90;;;;;;5130765;27;19923;-81
2022/03/15 05:40:21;;;;;;;52.65;28.65;;;4.60;99.90;;;;;;5113862;27;20047;-82
2022/03/15 05:42:47;;;;;;;55.70;30.67;;;4.60;99.90;;;;;;5113669;27;20054;-82
2022/03/15 05:45:13;;;;;;;51.67;30.15;;;4.60;99.90;;;;;;5114170;27;20481;-82
2022/03/15 05:47:39;;;;;;;47.70;29.17;;;4.70;99.90;;;;;;5112886;27;20548;-81
2022/03/15 05:50:06;;;;;;;54.15;31.58;;;4.70;99.90;;;;;;5113416;27;20039;-80
2022/03/15 05:52:32;;;;;;;59.30;31.85;;;4.70;99.90;;;;;;5112543;27;20039;-80
2022/03/15 05:54:57;;;;;;;51.97;29.98;;;4.70;99.90;;;;;;5112667;27;20047;-80
2022/03/15 05:57:23;;;;;;;54.63;30.50;;;4.70;99.90;;;;;;5130484;27;20451;-80
2022/03/15 05:59:49;;;;;;;56.83;31.02;;;4.80;99.90;;;;;;5112579;27;20460;-80
2022/03/15 06:02:15;;;;;;;62.42;32.28;;;4.80;99.90;;;;;;5112711;27;20039;-80
2022/03/15 06:04:40;;;;;;;54.75;29.25;;;4.80;99.90;;;;;;5111460;27;20047;-81
2022/03/15 06:07:06;;;;;;;60.92;30.27;;;4.80;99.90;;;;;;5112423;27;20031;-80
2022/03/15 06:09:32;;;;;;;60.13;32.00;;;4.90;99.90;;;;;;5130428;27;20382;-80
2022/03/15 06:11:58;;;;;;;53.95;30.40;;;4.90;99.90;;;;;;5112162;27;20043;-82
2022/03/15 06:14:24;;;;;;;53.38;30.38;;;4.90;99.90;;;;;;5130270;27;20092;-82
2022/03/15 06:16:49;;;;;;;53.70;30.77;;;4.90;99.90;;;;;;5112107;27;20051;-81
2022/03/15 06:19:16;;;;;;;49.45;29.75;;;4.90;99.90;;;;;;5111867;27;20120;-82
2022/03/15 06:21:42;;;;;;;53.28;28.23;;;5.00;99.90;;;;;;5111667;27;20438;-80
2022/03/15 06:24:08;;;;;;;57.33;30.90;;;5.00;99.90;;;;;;5112335;27;20485;-82
2022/03/15 06:26:35;;;;;;;58.78;30.20;;;5.00;99.90;;;;;;5111994;27;20442;-82
2022/03/15 06:29:02;;;;;;;;;;;5.00;99.90;;;;;;5112461;27;20043;-82
2022/03/15 06:31:29;;;;;;;56.03;29.83;;;5.00;99.90;;;;;;5111605;27;19919;-81
2022/03/15 06:33:55;;;;;;;59.72;29.63;;;5.10;99.90;;;;;;5094785;27;20062;-82
2022/03/15 06:36:21;;;;;;;53.97;29.52;;;5.10;99.90;;;;;;5111755;27;20040;-82
2022/03/15 06:38:46;;;;;;;60.95;30.48;;;5.10;99.90;;;;;;5111169;27;20058;-80
2022/03/15 06:41:14;;;;;;;56.17;29.73;;;5.10;99.90;;;;;;5100940;27;20469;-81
2022/03/15 06:43:41;;;;;;;53.45;28.20;;;5.20;99.90;;;;;;5114957;27;20042;-82
2022/03/15 06:46:08;;;;;;;56.35;28.98;;;5.20;99.90;;;;;;5132280;27;20094;-81
2022/03/15 06:48:34;;;;;;;54.58;30.05;;;5.20;99.90;;;;;;5146918;27;20049;-82
2022/03/15 06:51:00;;;;;;;;;;;5.30;99.90;;;;;;5119958;27;20095;-80
2022/03/15 06:53:25;;;;;;;;;;;5.30;99.90;;;;;;5130201;27;19919;-80
2022/03/15 06:55:51;;;;;;;;;;;5.30;99.90;;;;;;5098614;27;20005;-81
2022/03/15 06:58:17;;;;;;;;;;;5.40;99.90;;;;;;5149610;27;20433;-81
2022/03/15 07:00:43;;;;;;;;;;;5.40;99.90;;;;;;5132558;27;19918;-81
2022/03/15 07:03:09;;;;;;;;;;;5.40;99.90;;;;;;5115066;27;20404;-81
2022/03/15 07:05:35;;;;;;;;;;;5.40;99.90;;;;;;5150221;27;19919;-81
2022/03/15 07:08:00;;;;;;;;;;;5.40;99.90;;;;;;5150482;27;19923;-81
2022/03/15 07:10:26;;;;;;;;;;;5.50;99.90;;;;;;5150559;27;19926;-81
2022/03/15 07:12:51;;;;;;;;;;;5.50;99.90;;;;;;5130641;27;19922;-81
2022/03/15 07:15:17;;;;;;;;;;;5.50;99.90;;;;;;5115424;27;19919;-81
2022/03/15 07:17:53;;;;;;;;;;;5.60;99.90;;;;;;5150294;27;19945;-81
2022/03/15 07:20:19;;;;;;;;;;;5.60;99.90;;;;;;5132190;27;20272;-81
2022/03/15 07:22:45;;;;;;;;;;;5.70;99.90;;;;;;5131810;27;19926;-81
2022/03/15 07:25:10;;;;;;;;;;;5.70;99.90;;;;;;5132090;27;19919;-81
2022/03/15 07:27:36;;;;;;;;;;;5.70;99.90;;;;;;5131925;27;19923;-81
2022/03/15 07:30:03;;;;;;;60.63;31.33;;;5.80;99.90;;;;;;5130991;27;19923;-81
2022/03/15 07:32:29;;;;;;;74.88;46.92;;;5.80;99.90;;;;;;5148362;27;20471;-81
2022/03/15 07:34:54;;;;;;;75.77;48.33;;;5.80;99.90;;;;;;5148477;27;20557;-81
2022/03/15 07:37:20;;;;;;;76.90;47.97;;;5.90;99.90;;;;;;5130002;27;20437;-81
2022/03/15 07:39:46;;;;;;;77.17;49.33;;;5.90;99.90;;;;;;5130002;27;20437;-81
2022/03/15 07:42:12;;;;;;;82.87;49.07;;;5.90;99.90;;;;;;5129330;27;20400;-81
2022/03/15 07:44:41;;;;;;;84.78;49.90;;;6.00;99.90;;;;;;5112700;27;20445;-81
2022/03/15 07:47:06;;;;;;;76.18;46.40;;;6.00;99.90;;;;;;5130348;27;20837;-81
2022/03/15 07:49:32;;;;;;;77.40;47.72;;;6.10;99.90;;;;;;5130865;27;20428;-81
2022/03/15 07:51:58;;;;;;;83.53;50.17;;;6.10;99.90;;;;;;5149142;27;20401;-81
2022/03/15 07:54:23;;;;;;;73.10;46.25;;;6.10;99.90;;;;;;5130649;27;20384;-81
2022/03/15 07:56:50;;;;;;;74.07;45.55;;;6.20;99.90;;;;;;5130312;27;20405;-81
2022/03/15 07:59:15;;;;;;;76.95;45.97;;;6.20;99.90;;;;;;5130766;27;20946;-81
2022/03/15 08:01:41;;;;;;;73.40;45.47;;;6.20;99.90;;;;;;5131071;27;20455;-81
2022/03/15 08:04:07;;;;;;;74.43;46.67;;;6.20;99.90;;;;;;5148778;27;20393;-81
2022/03/15 08:06:35;;;;;;;79.78;47.15;;;6.30;99.90;;;;;;5130077;27;20401;-81
2022/03/15 08:09:01;;;;;;;77.88;46.15;;;6.30;99.90;;;;;;5149234;27;20489;-81
2022/03/15 08:11:27;;;;;;;75.40;45.03;;;6.40;99.90;;;;;;5130672;27;20751;-81
2022/03/15 08:13:53;;;;;;;72.87;46.30;;;6.40;99.90;;;;;;5149116;27;20396;-81
2022/03/15 08:16:21;;;;;;;68.28;42.70;;;6.40;99.90;;;;;;5130199;27;20421;-81
2022/03/15 08:18:47;;;;;;;72.33;43.47;;;6.50;99.90;;;;;;5130276;27;20425;-81
2022/03/15 08:21:12;;;;;;;71.65;46.15;;;6.50;99.90;;;;;;5130543;27;20465;-81
2022/03/15 08:23:38;;;;;;;70.15;44.17;;;6.50;99.90;;;;;;5148804;27;20421;-81
2022/03/15 08:26:04;;;;;;;68.40;43.50;;;6.50;99.90;;;;;;5148662;27;20409;-81
2022/03/15 08:28:29;;;;;;;71.23;44.53;;;6.60;99.90;;;;;;5132622;27;20396;-81
2022/03/15 08:30:55;;;;;;;73.73;44.90;;;6.60;99.90;;;;;;5134337;27;20800;-81
2022/03/15 08:33:21;;;;;;;75.37;44.73;;;6.60;99.90;;;;;;5134210;27;20400;-81
2022/03/15 08:35:47;;;;;;;74.22;44.20;;;6.70;99.90;;;;;;5117133;27;20910;-81
2022/03/15 08:38:13;;;;;;;71.20;43.40;;;6.80;99.90;;;;;;5152315;27;20405;-81
2022/03/15 08:40:39;;;;;;;69.82;37.50;;;6.80;99.90;;;;;;5134919;27;20057;-81
2022/03/15 08:43:06;;;;;;;67.35;36.40;;;6.80;99.90;;;;;;5154363;27;20030;-81
2022/03/15 08:45:31;;;;;;;66.68;35.90;;;6.90;99.90;;;;;;5135406;27;20091;-81
2022/03/15 08:47:57;;;;;;;65.78;33.33;;;6.90;99.90;;;;;;5153405;27;20047;-81
2022/03/15 08:50:23;;;;;;;65.88;35.80;;;7.00;99.90;;;;;;5154092;27;20504;-81
2022/03/15 08:52:48;;;;;;;59.58;33.20;;;7.00;99.90;;;;;;5134979;27;20046;-81
2022/03/15 08:55:15;;;;;;;60.45;33.42;;;7.10;99.90;;;;;;5134796;27;20045;-81
2022/03/15 08:57:41;;;;;;;66.93;35.95;;;7.10;99.90;;;;;;5153366;27;20038;-81
2022/03/15 09:00:09;;;;;;;63.17;35.17;;;7.10;99.90;;;;;;5135150;27;20050;-81
2022/03/15 09:02:34;;;;;;;67.38;35.00;;;7.10;99.90;;;;;;5134952;27;20095;-81
2022/03/15 09:05:00;;;;;;;64.05;34.47;;;7.10;99.90;;;;;;5153314;27;20035;-81
2022/03/15 09:07:27;;;;;;;63.67;35.33;;;7.10;99.90;;;;;;5135152;27;20042;-81
2022/03/15 09:09:53;;;;;;;58.72;33.28;;;7.20;99.90;;;;;;5153222;27;20412;-81
2022/03/15 09:12:19;;;;;;;62.22;33.53;;;7.20;99.90;;;;;;5153549;27;20035;-80
2022/03/15 09:14:45;;;;;;;61.30;33.42;;;7.20;99.90;;;;;;5134460;27;20170;-80
2022/03/15 09:17:11;;;;;;;64.63;33.28;;;7.20;99.90;;;;;;5153541;27;20051;-81
2022/03/15 09:19:36;;;;;;;55.47;33.20;;;7.20;99.90;;;;;;5134113;27;20134;-81
2022/03/15 09:22:03;;;;;;;57.00;32.88;;;7.20;99.90;;;;;;5134954;27;20050;-81
2022/03/15 09:24:30;;;;;;;57.00;32.67;;;7.30;99.90;;;;;;5153224;27;20042;-80
2022/03/15 09:26:56;;;;;;;58.47;33.42;;;7.30;99.90;;;;;;5153155;27;20081;-81
2022/03/15 09:29:22;;;;;;;57.60;34.67;;;7.30;99.90;;;;;;5134588;27;20461;-81
2022/03/15 09:31:47;;;;;;;55.58;34.17;;;7.30;99.90;;;;;;5152693;27;20091;-80
2022/03/15 09:34:13;;;;;;;50.35;31.13;;;7.30;99.90;;;;;;5153200;27;20085;-81
2022/03/15 09:36:39;;;;;;;51.45;31.33;;;7.30;99.90;;;;;;5152936;27;20038;-81
2022/03/15 09:39:09;;;;;;;51.75;32.08;;;7.40;99.90;;;;;;5151919;27;20138;-81
2022/03/15 09:41:38;;;;;;;54.15;32.55;;;7.40;99.90;;;;;;5152441;27;20115;-80
2022/03/15 09:44:08;;;;;;;53.42;32.58;;;7.40;99.90;;;;;;5117002;27;20493;-81
2022/03/15 09:46:49;;;;;;;47.20;31.35;;;7.40;99.90;;;;;;5134214;27;20049;-81
2022/03/15 09:49:15;;;;;;;53.05;32.40;;;7.40;99.90;;;;;;5134370;27;20484;-81
2022/03/15 09:51:42;;;;;;;55.05;32.28;;;7.50;99.90;;;;;;5134196;27;20129;-81
2022/03/15 09:54:08;;;;;;;55.72;33.30;;;7.50;99.90;;;;;;5152398;27;20050;-81
2022/03/15 09:56:38;;;;;;;;;;;7.70;99.90;;;;;;5117624;27;20208;-81
2022/03/15 09:59:14;;;;;;;;;;;7.90;99.90;;;;;;5134419;27;19919;-81
2022/03/15 10:01:40;;;;;;;;;;;8.20;99.90;;;;;;5134331;27;19930;-81
2022/03/15 10:04:06;;;;;;;;;;;8.50;99.90;;;;;;5152884;27;19923;-81
2022/03/15 10:06:31;;;;;;;;;;;8.80;99.90;;;;;;5134209;27;20461;-81
2022/03/15 10:08:57;;;;;;;;;;;9.10;99.90;;;;;;5134424;27;19973;-81
2022/03/15 10:11:24;;;;;;;;;;;9.30;99.90;;;;;;5117576;27;19926;-82
2022/03/15 10:13:50;;;;;;;;;;;9.50;99.90;;;;;;5152772;27;19926;-81
2022/03/15 10:16:16;;;;;;;;;;;9.70;99.90;;;;;;5133912;27;19923;-81
2022/03/15 10:18:55;;;;;;;;;;;9.80;99.90;;;;;;5134019;27;20324;-81
2022/03/15 10:21:24;;;;;;;;;;;9.90;99.90;;;;;;5134416;27;19919;-81
2022/03/15 10:23:54;;;;;;;;;;;10.10;99.90;;;;;;5133886;27;20428;-82
2022/03/15 10:26:24;;;;;;;;;;;10.10;99.90;;;;;;5133914;27;19919;-82
2022/03/15 10:28:53;;;;;;;;;;;10.20;99.90;;;;;;5133754;27;20365;-81
2022/03/15 10:31:21;;;;;;;;;;;10.30;99.90;;;;;;5133684;27;20453;-81
2022/03/15 10:33:47;;;;;;;;;;;10.20;99.90;;;;;;5133391;27;19923;-81
2022/03/15 10:36:17;;;;;;;;;;;10.20;99.90;;;;;;5133839;27;19919;-81
2022/03/15 10:38:51;;;;;;;;;;;10.10;99.90;;;;;;5133612;27;20256;-81
2022/03/15 10:41:17;;;;;;;;;;;10.00;99.90;;;;;;5133683;27;20323;-81
2022/03/15 10:43:42;;;;;;;;;;;9.90;99.90;;;;;;5133073;27;19919;-81
2022/03/15 10:46:13;;;;;;;;;;;9.90;99.90;;;;;;5133814;27;21789;-79
2022/03/15 10:48:38;;;;;;;;;;;10.00;99.90;;;;;;5133434;27;19923;-79
2022/03/15 10:51:07;;;;;;;;;;;10.00;99.90;;;;;;5151843;27;20388;-79
2022/03/15 10:53:38;;;;;;;;;;;10.00;99.90;;;;;;5116091;27;19923;-79
2022/03/15 10:56:18;;;;;;;;;;;10.00;99.90;;;;;;5152146;27;19919;-79
2022/03/15 10:58:51;;;;;;;;;;;10.00;99.90;;;;;;5133396;27;19923;-79
2022/03/15 11:01:21;;;;;;;;;;;10.10;99.90;;;;;;5151695;27;19923;-79
2022/03/15 11:03:57;;;;;;;;;;;10.10;99.90;;;;;;5133450;27;19926;-79
2022/03/15 11:06:30;;;;;;;;;;;10.10;99.90;;;;;;5151911;27;19922;-80
2022/03/15 11:08:56;;;;;;;;;;;10.10;99.90;;;;;;5151942;27;20015;-80
2022/03/15 11:11:25;;;;;;;;;;;10.10;99.90;;;;;;5115838;27;20016;-80
2022/03/15 11:13:57;;;;;;;;;;;10.10;99.90;;;;;;5132622;27;19926;-80
2022/03/15 11:16:23;;;;;;;;;;;10.00;99.90;;;;;;5151295;27;19925;-80
2022/03/15 11:18:50;;;;;;;;;;;10.00;99.90;;;;;;5133139;27;20291;-80
2022/03/15 11:21:17;;;;;;;;;;;9.90;99.90;;;;;;5151501;27;19922;-80
2022/03/15 11:23:45;;;;;;;;;;;9.90;99.90;;;;;;5132894;27;20002;-80
2022/03/15 11:26:12;;;;;;;;;;;9.90;99.90;;;;;;5151245;27;20005;-80
2022/03/15 11:28:37;;;;;;;;;;;9.90;99.90;;;;;;5151252;27;19923;-80
2022/03/15 11:31:03;;;;;;;;;;;9.80;99.90;;;;;;5132515;27;20501;-80
2022/03/15 11:33:29;;;;;;;;;;;9.80;99.90;;;;;;5150910;27;19926;-80
2022/03/15 11:35:55;;;;;;;;;;;9.80;99.90;;;;;;5132803;27;19919;-80
2022/03/15 11:38:21;;;;;;;;;;;9.80;99.90;;;;;;5115248;27;19963;-80
2022/03/15 11:40:50;;;;;;;;;;;9.80;99.90;;;;;;5132572;27;19929;-80
2022/03/15 11:43:28;;;;;;;;;;;9.70;99.90;;;;;;5115393;27;20272;-80
2022/03/15 11:45:54;;;;;;;;;;;9.80;99.90;;;;;;5132902;27;20310;-80
2022/03/15 11:48:35;;;;;;;;;;;9.80;99.90;;;;;;5133080;27;19919;-80
2022/03/15 11:51:04;;;;;;;;;;;9.80;99.90;;;;;;5132455;27;19962;-80
2022/03/15 11:53:32;;;;;;;;;;;9.80;99.90;;;;;;5115222;27;19926;-80
2022/03/15 11:56:07;;;;;;;;;;;9.80;99.90;;;;;;5150926;27;20332;-80
2022/03/15 11:58:32;;;;;;;;;;;9.90;99.90;;;;;;5150769;27;19929;-80
2022/03/15 12:01:11;;;;;;;;;;;10.00;99.90;;;;;;5132003;27;20010;-80
2022/03/15 12:03:44;;;;;;;;;;;10.00;99.90;;;;;;5153810;27;20296;-80
2022/03/15 12:06:17;;;;;;;;;;;10.00;99.90;;;;;;5136573;27;19965;-80
2022/03/15 12:08:51;;;;;;;;;;;10.10;99.90;;;;;;5136218;27;19926;-80
2022/03/15 12:11:24;;;;;;;;;;;10.20;99.90;;;;;;5136754;27;19970;-80
2022/03/15 12:13:50;;;;;;;;;;;10.20;99.90;;;;;;5136448;27;19925;-80
2022/03/15 12:16:24;;;;;;;;;;;10.30;99.90;;;;;;5136412;27;20006;-80
2022/03/15 12:19:06;;;;;;;;;;;10.30;99.90;;;;;;5135946;27;19919;-80
2022/03/15 12:21:46;;;;;;;;;;;10.30;99.90;;;;;;5154641;27;19922;-80
2022/03/15 12:24:16;;;;;;;;;;;10.40;99.90;;;;;;5136014;27;19918;-80
2022/03/15 12:26:45;;;;;;;;;;;10.40;99.90;;;;;;5154218;27;20291;-80
2022/03/15 12:29:14;;;;;;;;;;;10.40;99.90;;;;;;5154763;27;19919;-80
2022/03/15 12:31:41;;;;;;;;;;;10.50;99.90;;;;;;5154326;27;19926;-80
2022/03/15 12:34:10;;;;;;;;;;;10.50;99.90;;;;;;5154752;27;19944;-80
2022/03/15 12:36:37;;;;;;;;;;;10.50;99.90;;;;;;5136364;27;19919;-80
2022/03/15 12:39:10;;;;;;;;;;;10.60;99.90;;;;;;5135774;27;19919;-80
2022/03/15 12:41:36;;;;;;;;;;;10.60;99.90;;;;;;5135549;27;19925;-80
2022/03/15 12:44:01;;;;;;;;;;;10.70;99.90;;;;;;5135389;27;20021;-80
2022/03/15 12:46:30;;;;;;;;;;;10.70;99.90;;;;;;5117750;27;20007;-80
2022/03/15 12:49:04;;;;;;;;;;;10.70;99.90;;;;;;5117859;27;19919;-80
2022/03/15 12:51:37;;;;;;;;;;;10.80;99.90;;;;;;5153454;27;19955;-80
2022/03/15 12:54:12;;;;;;;;;;;10.90;99.90;;;;;;5134770;27;19930;-80
2022/03/15 12:56:58;;;;;;;;;;;11.00;99.90;;;;;;5152924;27;19958;-80
2022/03/15 12:59:24;;;;;;;;;;;11.10;99.90;;;;;;5134571;27;19923;-80
2022/03/15 13:01:50;;;;;;;;;;;11.10;99.90;;;;;;5153205;27;20376;-80
2022/03/15 13:04:17;;;;;;;;;;;11.10;99.90;;;;;;5153490;27;19923;-80
2022/03/15 13:06:44;;;;;;;;;;;11.20;99.90;;;;;;5152623;27;19919;-79
2022/03/15 13:09:10;;;;;;;;;;;11.20;99.90;;;;;;5134489;27;19923;-80